Time;durP1;ratioP1;P1;durP2;ratioP2;P2;SDS_P1;SDS_P2;PMS_P1;PMS_P2;Temp;Humidity;BMP_temperature;BMP_pressure;BME280_temperature;BME280_humidity;BME280_pressure;Samples;Min_cycle;Max_cycle;Signal;HPM_P1;HPM_P2
2022/05/03 00:01:02;;;;;;;7.85;7.00;;;6.50;99.90;;;;;;4978087;28;20128;-47
2022/05/03 00:03:34;;;;;;;7.65;6.95;;;6.50;99.90;;;;;;4989569;28;20069;-49
2022/05/03 00:06:50;;;;;;;7.35;6.57;;;6.50;99.90;;;;;;4979381;28;20050;-47
2022/05/03 00:09:41;;;;;;;4.22;3.83;;;6.40;99.90;;;;;;4944572;28;20127;-49
2022/05/03 00:12:11;;;;;;;4.55;4.15;;;6.40;99.90;;;;;;4939632;28;20126;-46
2022/05/03 00:14:52;;;;;;;4.97;4.30;;;6.30;99.90;;;;;;4942839;29;20149;-48
2022/05/03 00:17:19;;;;;;;6.10;5.47;;;6.20;99.90;;;;;;4963209;28;20070;-51
2022/05/03 00:19:45;;;;;;;9.55;5.70;;;6.20;99.90;;;;;;5000789;28;20057;-49
2022/05/03 00:22:14;;;;;;;5.63;5.13;;;6.10;99.90;;;;;;5000483;28;20412;-47
2022/05/03 00:24:41;;;;;;;6.60;6.00;;;6.10;99.90;;;;;;4984108;28;22044;-49
2022/05/03 00:27:08;;;;;;;8.32;6.80;;;6.10;99.90;;;;;;4969635;28;20393;-46
2022/05/03 00:29:34;;;;;;;7.72;7.03;;;6.10;99.90;;;;;;4981938;28;20484;-46
2022/05/03 00:32:04;;;;;;;8.05;7.35;;;6.10;99.90;;;;;;4981076;28;20433;-47
2022/05/03 00:34:35;;;;;;;7.68;6.97;;;6.10;99.90;;;;;;4981032;28;20050;-47
2022/05/03 00:37:01;;;;;;;7.55;6.80;;;6.10;99.90;;;;;;4982020;28;20058;-45
2022/05/03 00:39:27;;;;;;;8.98;6.70;;;6.10;99.90;;;;;;4981446;28;20054;-42
2022/05/03 00:42:08;;;;;;;8.13;7.43;;;6.00;99.90;;;;;;4981773;28;20077;-47
2022/05/03 00:44:58;;;;;;;7.43;6.72;;;6.00;99.90;;;;;;4966325;28;20389;-48
2022/05/03 00:47:50;;;;;;;7.32;6.25;;;5.90;99.90;;;;;;5024398;28;20139;-48
2022/05/03 00:50:25;;;;;;;8.40;7.50;;;5.90;99.90;;;;;;5023277;28;20064;-48
2022/05/03 00:53:17;;;;;;;9.40;8.55;;;5.90;99.90;;;;;;5022208;28;20049;-46
2022/05/03 00:56:05;;;;;;;8.88;8.00;;;5.90;99.90;;;;;;5025894;28;20709;-48
2022/05/03 00:59:01;;;;;;;7.57;6.88;;;5.80;99.90;;;;;;5048671;28;20567;-46
2022/05/03 01:01:52;;;;;;;7.50;6.90;;;5.80;99.90;;;;;;5040811;28;20072;-45
2022/05/03 01:04:25;;;;;;;7.25;6.63;;;5.70;99.90;;;;;;5042558;28;20160;-47
2022/05/03 01:07:03;;;;;;;9.40;7.40;;;5.70;99.90;;;;;;5042473;28;20053;-48
2022/05/03 01:09:41;;;;;;;7.97;6.80;;;5.60;99.90;;;;;;5040859;28;20479;-47
2022/05/03 01:12:23;;;;;;;8.43;7.60;;;5.70;99.90;;;;;;5041785;28;20045;-49
2022/05/03 01:15:01;;;;;;;11.00;9.73;;;5.60;99.90;;;;;;5031123;28;20041;-48
2022/05/03 01:17:40;;;;;;;10.95;9.55;;;5.60;99.90;;;;;;5042386;28;20087;-46
2022/05/03 01:20:09;;;;;;;10.20;9.20;;;5.60;99.90;;;;;;5045620;28;20057;-50
2022/05/03 01:22:56;;;;;;;11.95;10.52;;;5.60;99.90;;;;;;5040195;28;20170;-51
2022/05/03 01:25:31;;;;;;;11.25;9.95;;;5.50;99.90;;;;;;5058659;28;20121;-49
2022/05/03 01:28:21;;;;;;;10.05;9.10;;;5.50;99.90;;;;;;5062344;28;20140;-49
2022/05/03 01:30:49;;;;;;;10.23;9.18;;;5.40;99.90;;;;;;5056804;28;20060;-46
2022/05/03 01:33:32;;;;;;;9.55;8.75;;;5.30;99.90;;;;;;5044029;28;20602;-46
2022/05/03 01:36:02;;;;;;;10.10;9.10;;;5.30;99.90;;;;;;5052086;28;20052;-46
2022/05/03 01:39:01;;;;;;;10.90;9.80;;;5.20;99.90;;;;;;5061703;28;20053;-50
2022/05/03 01:41:51;;;;;;;12.38;10.93;;;5.20;99.90;;;;;;5041497;28;20048;-46
2022/05/03 01:44:50;;;;;;;12.75;11.40;;;5.20;99.90;;;;;;5062978;28;20105;-46
2022/05/03 01:47:26;;;;;;;12.18;11.07;;;5.20;99.90;;;;;;5062301;28;20044;-46
2022/05/03 01:50:20;;;;;;;11.18;10.07;;;5.10;99.90;;;;;;5062749;28;20475;-44
2022/05/03 01:53:06;;;;;;;12.35;11.15;;;5.10;99.90;;;;;;5061325;28;20051;-49
2022/05/03 01:55:35;;;;;;;13.30;11.90;;;5.20;99.90;;;;;;5062957;28;20119;-49
2022/05/03 01:58:10;;;;;;;13.23;12.10;;;5.20;99.90;;;;;;5062595;28;20398;-45
2022/05/03 02:00:36;;;;;;;13.25;11.93;;;5.20;99.90;;;;;;5061141;28;20048;-47
2022/05/03 02:03:25;;;;;;;14.50;11.98;;;5.20;99.90;;;;;;5059577;28;20078;-48
2022/05/03 02:05:51;;;;;;;14.50;13.07;;;5.20;99.90;;;;;;5061680;28;20052;-46
2022/05/03 02:08:30;;;;;;;13.05;11.85;;;5.20;99.90;;;;;;5043221;28;20460;-46
2022/05/03 02:11:19;;;;;;;14.23;11.55;;;5.20;99.90;;;;;;5059077;28;20059;-45
2022/05/03 02:17:03;;;;;;;15.32;13.73;;;5.20;99.90;;;;;;4979946;28;20464;-48
2022/05/03 02:20:09;;;;;;;13.73;12.43;;;5.20;99.90;;;;;;4979086;28;20097;-46
2022/05/03 02:22:35;;;;;;;13.85;12.40;;;5.30;99.90;;;;;;4978605;28;20054;-49
2022/05/03 02:25:12;;;;;;;14.82;13.25;;;5.20;99.90;;;;;;4967523;28;20046;-45
2022/05/03 02:27:48;;;;;;;14.80;13.20;;;5.20;99.90;;;;;;4979851;28;20098;-47
2022/05/03 02:30:17;;;;;;;12.50;11.30;;;5.20;99.90;;;;;;4966345;28;20145;-48
2022/05/03 02:33:12;;;;;;;12.07;10.90;;;5.20;99.90;;;;;;4961373;28;20126;-48
2022/05/03 02:35:44;;;;;;;11.88;10.68;;;5.20;99.90;;;;;;4962353;28;20152;-47
2022/05/03 02:38:12;;;;;;;11.98;10.88;;;5.20;99.90;;;;;;4960629;28;20054;-49
2022/05/03 02:40:44;;;;;;;12.82;11.52;;;5.10;99.90;;;;;;4959581;28;20058;-50
2022/05/03 02:43:14;;;;;;;15.52;13.93;;;5.10;99.90;;;;;;4945528;28;20073;-47
2022/05/03 02:45:50;;;;;;;12.82;11.52;;;5.10;99.90;;;;;;4973919;28;20065;-47
2022/05/03 02:48:36;;;;;;;9.88;8.98;;;5.10;99.90;;;;;;4962693;28;20094;-48
2022/05/03 02:51:07;;;;;;;9.98;8.98;;;5.10;99.90;;;;;;4994589;28;20065;-46
2022/05/03 02:53:38;;;;;;;10.10;9.13;;;5.00;99.90;;;;;;5015655;28;20535;-47
2022/05/03 02:56:10;;;;;;;10.93;9.88;;;5.00;99.90;;;;;;5006136;28;20054;-48
2022/05/03 02:59:05;;;;;;;12.60;10.90;;;5.00;99.90;;;;;;5008490;28;20427;-46
2022/05/03 03:01:49;;;;;;;14.00;12.70;;;5.10;99.90;;;;;;5019953;28;20099;-45
2022/05/03 03:04:42;;;;;;;13.80;12.27;;;5.00;99.90;;;;;;5020500;28;20483;-46
2022/05/03 03:07:16;;;;;;;12.57;11.43;;;5.10;99.90;;;;;;5020427;28;20065;-47
2022/05/03 03:10:12;;;;;;;12.30;11.07;;;5.20;99.90;;;;;;5019503;28;20060;-48
2022/05/03 03:13:04;;;;;;;11.77;10.57;;;5.30;99.90;;;;;;5019272;28;20069;-45
2022/05/03 03:15:38;;;;;;;12.95;11.65;;;5.40;99.90;;;;;;5020480;28;20045;-47
2022/05/03 03:18:18;;;;;;;13.60;12.30;;;5.50;99.90;;;;;;5012364;28;20061;-47
2022/05/03 03:20:56;;;;;;;14.02;12.70;;;5.50;99.90;;;;;;5017488;28;20127;-49
2022/05/03 03:23:28;;;;;;;13.73;12.32;;;5.60;99.90;;;;;;4995072;28;20049;-48
2022/05/03 03:25:54;;;;;;;15.55;12.68;;;5.70;99.90;;;;;;5059894;28;20056;-48
2022/05/03 03:28:22;;;;;;;14.63;13.25;;;5.70;99.90;;;;;;5059982;28;20402;-49
2022/05/03 03:30:52;;;;;;;15.00;13.50;;;5.80;99.90;;;;;;5059524;28;20052;-47
2022/05/03 03:33:19;;;;;;;13.40;11.98;;;5.90;99.90;;;;;;5042730;28;20071;-48
2022/05/03 03:35:46;;;;;;;14.02;12.68;;;5.90;99.90;;;;;;5059133;28;20562;-49
2022/05/03 03:38:16;;;;;;;13.98;12.60;;;5.90;99.90;;;;;;5037805;28;20049;-47
2022/05/03 03:40:45;;;;;;;15.23;13.63;;;6.00;99.90;;;;;;5060284;28;20086;-48
2022/05/03 03:43:12;;;;;;;17.25;15.52;;;6.00;99.90;;;;;;5061144;28;20048;-47
2022/05/03 03:45:40;;;;;;;17.23;15.65;;;6.10;99.90;;;;;;5043867;28;20091;-48
2022/05/03 03:48:07;;;;;;;16.77;15.18;;;6.10;99.90;;;;;;5067971;28;20053;-49
2022/05/03 03:50:34;;;;;;;16.75;15.00;;;6.20;99.90;;;;;;5065847;28;20045;-48
2022/05/03 03:53:00;;;;;;;17.40;15.63;;;6.20;99.90;;;;;;5064850;28;20140;-47
2022/05/03 03:55:27;;;;;;;17.70;15.98;;;6.20;99.90;;;;;;5046895;28;20151;-49
2022/05/03 03:57:54;;;;;;;18.27;16.45;;;6.30;99.90;;;;;;5064306;28;20052;-47
2022/05/03 04:00:20;;;;;;;18.00;16.20;;;6.30;99.90;;;;;;5064289;28;20529;-46
2022/05/03 04:02:46;;;;;;;17.42;15.70;;;6.40;99.90;;;;;;5045310;28;20052;-48
2022/05/03 04:05:21;;;;;;;17.00;15.25;;;6.40;99.90;;;;;;5046217;28;20506;-51
2022/05/03 04:07:48;;;;;;;16.50;14.82;;;6.40;99.90;;;;;;5063233;28;20044;-47
2022/05/03 04:10:14;;;;;;;17.77;16.00;;;6.50;99.90;;;;;;5062000;28;20602;-44
2022/05/03 04:12:40;;;;;;;17.88;16.17;;;6.60;99.90;;;;;;5063757;28;20131;-47
2022/05/03 04:15:07;;;;;;;21.17;19.17;;;6.70;99.90;;;;;;5063775;28;20058;-46
2022/05/03 04:17:33;;;;;;;21.88;19.77;;;6.70;99.90;;;;;;5043742;28;20582;-47
2022/05/03 04:19:59;;;;;;;21.55;19.35;;;6.80;99.90;;;;;;5063062;28;20052;-47
2022/05/03 04:22:28;;;;;;;21.17;18.90;;;6.90;99.90;;;;;;5064000;28;20060;-46
2022/05/03 04:24:54;;;;;;;19.25;17.42;;;6.90;99.90;;;;;;5041644;28;20064;-47
2022/05/03 04:27:20;;;;;;;19.00;17.13;;;6.90;99.90;;;;;;5041260;28;20089;-48
2022/05/03 04:29:47;;;;;;;20.02;17.88;;;7.00;99.90;;;;;;5042725;28;20191;-48
2022/05/03 04:32:13;;;;;;;17.65;16.00;;;7.00;99.90;;;;;;5031948;28;20171;-48
2022/05/03 04:34:39;;;;;;;19.58;17.75;;;7.00;99.90;;;;;;5042299;28;20109;-48
2022/05/03 04:37:05;;;;;;;19.70;17.80;;;7.10;99.90;;;;;;5042773;28;20053;-47
2022/05/03 04:39:31;;;;;;;18.65;16.75;;;7.10;99.90;;;;;;5042151;28;20052;-45
2022/05/03 04:41:56;;;;;;;19.40;17.02;;;7.20;99.90;;;;;;5038076;28;20080;-47
2022/05/03 04:44:22;;;;;;;19.98;17.98;;;7.20;99.90;;;;;;5041608;28;20041;-49
2022/05/03 04:46:48;;;;;;;20.52;18.52;;;7.30;99.90;;;;;;5042842;28;20474;-49
2022/05/03 04:49:13;;;;;;;21.10;19.02;;;7.30;99.90;;;;;;5037376;28;20492;-48
2022/05/03 04:51:39;;;;;;;20.73;18.65;;;7.40;99.90;;;;;;5041440;28;20057;-48
2022/05/03 04:54:05;;;;;;;20.27;18.35;;;7.40;99.90;;;;;;5043160;28;20049;-45
2022/05/03 04:56:32;;;;;;;19.77;17.98;;;7.50;99.90;;;;;;5042946;28;20496;-46
2022/05/03 04:58:58;;;;;;;19.88;17.88;;;7.50;99.90;;;;;;5043222;28;20048;-47
2022/05/03 05:01:24;;;;;;;20.08;17.80;;;7.60;99.90;;;;;;5043489;28;20060;-52
2022/05/03 05:03:50;;;;;;;21.77;19.58;;;7.70;99.90;;;;;;5025714;28;20172;-48
2022/05/03 05:06:16;;;;;;;20.75;18.65;;;7.70;99.90;;;;;;5041491;28;20048;-47
2022/05/03 05:08:43;;;;;;;21.27;19.17;;;7.70;99.90;;;;;;5043339;28;20135;-49
2022/05/03 05:11:09;;;;;;;21.67;19.48;;;7.80;99.90;;;;;;5040617;28;20129;-47
2022/05/03 05:13:36;;;;;;;21.58;19.58;;;7.90;99.90;;;;;;5040918;28;20044;-49
2022/05/03 05:16:07;;;;;;;21.35;19.40;;;7.90;99.90;;;;;;5039374;28;20125;-47
2022/05/03 05:18:33;;;;;;;22.20;20.00;;;8.00;99.90;;;;;;5042889;28;20103;-47
2022/05/03 05:20:59;;;;;;;21.20;19.10;;;8.10;99.90;;;;;;5042322;28;20582;-48
2022/05/03 05:23:24;;;;;;;22.55;20.23;;;8.10;99.90;;;;;;5043250;28;20045;-49
2022/05/03 05:25:51;;;;;;;22.52;20.33;;;8.20;99.90;;;;;;5058190;28;20574;-46
2022/05/03 05:28:18;;;;;;;23.50;21.25;;;8.30;99.90;;;;;;5042922;28;20728;-49
2022/05/03 05:30:45;;;;;;;24.80;22.20;;;8.30;99.90;;;;;;5041187;28;20048;-50
2022/05/03 05:33:12;;;;;;;22.58;20.45;;;8.40;99.90;;;;;;5041848;28;20067;-52
2022/05/03 05:35:41;;;;;;;23.05;20.80;;;8.50;99.90;;;;;;5039858;28;20053;-49
2022/05/03 05:38:07;;;;;;;23.05;20.40;;;8.60;99.90;;;;;;5060931;28;20118;-51
2022/05/03 05:40:33;;;;;;;23.92;21.23;;;8.70;99.90;;;;;;5059705;28;20085;-48
2022/05/03 05:43:02;;;;;;;23.98;21.58;;;8.70;99.90;;;;;;5061018;28;20052;-50
2022/05/03 05:45:32;;;;;;;24.60;22.23;;;8.80;99.90;;;;;;5056182;28;20041;-43
2022/05/03 05:47:57;;;;;;;22.83;20.52;;;8.80;99.90;;;;;;5036528;28;20061;-48
2022/05/03 05:50:24;;;;;;;23.50;21.20;;;8.80;99.90;;;;;;5060706;28;20036;-49
2022/05/03 05:55:36;;;;;;;24.38;21.98;;;8.90;99.90;;;;;;5041666;28;20456;-47
2022/05/03 05:58:03;;;;;;;23.65;21.40;;;9.00;99.90;;;;;;5041789;28;20625;-48
2022/05/03 06:00:30;;;;;;;24.48;21.90;;;9.00;99.90;;;;;;5033256;28;20613;-47
2022/05/03 06:02:56;;;;;;;25.45;22.88;;;9.00;99.90;;;;;;5048128;28;20055;-49
2022/05/03 06:05:22;;;;;;;24.50;21.98;;;9.10;99.90;;;;;;5058305;28;20049;-48
2022/05/03 06:07:47;;;;;;;25.83;22.90;;;9.10;99.90;;;;;;5057729;28;20056;-50
2022/05/03 06:10:14;;;;;;;26.50;23.77;;;9.10;99.90;;;;;;5035232;28;20053;-50
2022/05/03 06:12:40;;;;;;;25.70;23.00;;;9.20;99.90;;;;;;5061093;28;20040;-49
2022/05/03 06:15:07;;;;;;;26.27;23.42;;;9.20;99.90;;;;;;5044666;28;20058;-49
2022/05/03 06:17:32;;;;;;;24.92;22.23;;;9.20;99.90;;;;;;5045997;28;20060;-49
2022/05/03 06:19:58;;;;;;;24.08;21.67;;;9.20;99.90;;;;;;5061773;28;20400;-50
2022/05/03 06:22:24;;;;;;;24.83;22.38;;;9.30;99.90;;;;;;5059877;28;20502;-48
2022/05/03 06:24:50;;;;;;;27.23;24.43;;;9.30;99.90;;;;;;5020683;28;1120236;-48
2022/05/03 06:27:16;;;;;;;29.13;26.15;;;9.30;99.90;;;;;;5061688;28;20294;-48
2022/05/03 06:29:42;;;;;;;29.55;24.27;;;9.40;99.90;;;;;;5061073;28;20068;-48
2022/05/03 06:32:10;;;;;;;32.88;26.33;;;9.40;99.90;;;;;;5059785;28;20483;-47
2022/05/03 06:34:37;;;;;;;30.08;25.85;;;9.40;99.90;;;;;;5061597;28;20052;-47
2022/05/03 06:37:04;;;;;;;36.67;30.00;;;9.50;99.90;;;;;;5058990;28;20214;-46
2022/05/03 06:39:30;;;;;;;36.03;31.73;;;9.50;99.90;;;;;;5042529;28;20434;-47
2022/05/03 06:41:56;;;;;;;39.35;31.40;;;9.50;99.90;;;;;;5042372;28;20075;-47
2022/05/03 06:44:22;;;;;;;35.58;31.67;;;9.60;99.90;;;;;;5043117;28;20045;-47
2022/05/03 06:46:49;;;;;;;42.92;34.58;;;9.60;99.90;;;;;;5061324;28;20119;-47
2022/05/03 06:49:15;;;;;;;41.08;31.30;;;9.60;99.90;;;;;;5054949;28;20049;-47
2022/05/03 06:51:41;;;;;;;36.53;32.35;;;9.60;99.90;;;;;;5057417;28;20050;-46
2022/05/03 06:54:07;;;;;;;41.05;34.05;;;9.60;99.90;;;;;;5038607;28;20067;-48
2022/05/03 06:56:35;;;;;;;45.08;35.17;;;9.70;99.90;;;;;;5026823;28;20159;-42
2022/05/03 06:59:08;;;;;;;42.60;34.47;;;9.70;99.90;;;;;;5043240;28;20053;-46
2022/05/03 07:01:33;;;;;;;39.03;30.08;;;9.80;99.90;;;;;;5033749;28;20105;-45
2022/05/03 07:03:59;;;;;;;33.53;26.42;;;9.70;99.90;;;;;;5043534;28;20510;-48
2022/05/03 07:06:25;;;;;;;33.15;26.40;;;9.70;99.90;;;;;;5029459;28;20056;-45
2022/05/03 07:08:51;;;;;;;29.85;26.58;;;9.70;99.90;;;;;;5060141;28;20044;-48
2022/05/03 07:11:17;;;;;;;33.00;25.08;;;9.70;99.90;;;;;;5022301;28;20048;-47
2022/05/03 07:13:43;;;;;;;40.45;24.48;;;9.70;99.90;;;;;;5034357;28;20320;-48
2022/05/03 07:16:09;;;;;;;31.30;22.73;;;9.80;99.90;;;;;;5058736;28;20044;-49
2022/05/03 07:24:05;;;;;;;35.38;23.98;;;9.70;99.90;;;;;;5056207;28;20075;-46
2022/05/03 07:26:31;;;;;;;26.88;20.42;;;9.70;99.90;;;;;;5061760;28;20053;-46
2022/05/03 07:28:57;;;;;;;31.98;21.48;;;9.70;99.90;;;;;;5061115;28;20036;-49
2022/05/03 07:31:23;;;;;;;24.08;19.45;;;9.80;99.90;;;;;;5046306;28;20060;-46
2022/05/03 07:33:49;;;;;;;19.90;11.93;;;9.90;99.90;;;;;;5043084;28;20133;-47
2022/05/03 07:36:19;;;;;;;14.10;10.25;;;9.90;99.90;;;;;;5059679;28;20044;-50
2022/05/03 07:38:46;;;;;;;24.83;10.80;;;10.00;99.90;;;;;;5060832;28;20118;-47
2022/05/03 07:41:12;;;;;;;33.22;11.20;;;10.00;99.90;;;;;;5059726;28;20131;-49
2022/05/03 07:43:38;;;;;;;105.40;14.77;;;10.10;99.90;;;;;;5036645;28;20067;-47
2022/05/03 07:46:03;;;;;;;17.63;10.55;;;10.10;99.90;;;;;;5049682;28;20084;-48
2022/05/03 07:48:29;;;;;;;20.63;10.25;;;10.10;99.90;;;;;;5052011;28;20245;-47
2022/05/03 07:50:55;;;;;;;14.55;7.85;;;10.20;99.90;;;;;;5059535;28;20048;-45
2022/05/03 07:53:21;;;;;;;17.73;7.18;;;10.20;99.90;;;;;;5039760;28;20049;-47
2022/05/03 07:55:48;;;;;;;16.00;7.40;;;10.20;99.90;;;;;;5060269;28;20058;-47
2022/05/03 07:58:15;;;;;;;14.07;7.10;;;10.10;99.90;;;;;;5060073;28;20598;-48
2022/05/03 08:00:46;;;;;;;18.33;8.13;;;10.30;99.90;;;;;;5041010;28;20061;-48
2022/05/03 08:03:13;;;;;;;16.77;8.48;;;10.30;99.90;;;;;;5059861;28;20052;-48
2022/05/03 08:05:39;;;;;;;19.33;8.20;;;10.40;99.90;;;;;;5057975;28;20044;-47
2022/05/03 08:08:05;;;;;;;19.17;8.02;;;10.40;99.90;;;;;;5041569;28;20052;-48
2022/05/03 08:10:31;;;;;;;17.58;7.40;;;10.50;99.90;;;;;;5060811;28;20045;-44
2022/05/03 08:12:57;;;;;;;19.67;8.18;;;10.50;99.90;;;;;;5041206;28;20093;-47
2022/05/03 08:15:22;;;;;;;18.95;8.07;;;10.50;99.90;;;;;;5059295;28;20163;-47
2022/05/03 08:17:49;;;;;;;16.58;7.05;;;10.50;99.90;;;;;;5059305;28;20132;-45
2022/05/03 08:20:16;;;;;;;22.90;8.00;;;10.60;99.90;;;;;;5060296;28;20052;-47
2022/05/03 08:22:42;;;;;;;20.05;8.77;;;10.50;99.90;;;;;;5059475;28;20045;-46
2022/05/03 08:25:08;;;;;;;23.05;8.90;;;10.50;99.90;;;;;;5036838;28;20080;-47
2022/05/03 08:27:37;;;;;;;21.98;8.63;;;10.50;99.90;;;;;;5039759;28;20071;-44
2022/05/03 08:30:07;;;;;;;25.10;9.48;;;10.70;99.90;;;;;;5039159;28;20045;-46
2022/05/03 08:32:33;;;;;;;17.25;8.18;;;10.70;99.90;;;;;;5027704;28;20559;-50
2022/05/03 08:34:59;;;;;;;18.05;7.32;;;10.80;99.90;;;;;;5042251;28;20531;-48
2022/05/03 08:42:57;;;;;;;20.48;8.20;;;10.90;99.90;;;;;;5042050;28;20139;-47
2022/05/03 08:45:24;;;;;;;27.48;8.52;;;11.00;99.90;;;;;;5042003;28;20096;-48
2022/05/03 08:47:50;;;;;;;18.20;7.93;;;10.90;99.90;;;;;;5027655;28;20052;-49
2022/05/03 08:50:20;;;;;;;24.83;8.30;;;11.00;99.90;;;;;;5041317;28;20049;-51
2022/05/03 08:53:03;;;;;;;24.35;8.27;;;11.00;99.90;;;;;;5031889;28;20404;-47
2022/05/03 08:55:32;;;;;;;19.37;8.37;;;10.80;99.90;;;;;;5040843;28;20078;-49
2022/05/03 08:57:58;;;;;;;22.45;7.60;;;10.70;99.90;;;;;;5033785;28;20053;-49
2022/05/03 09:00:25;;;;;;;18.00;7.18;;;10.50;99.90;;;;;;5040807;28;20053;-49
2022/05/03 09:02:55;;;;;;;22.63;8.18;;;10.40;99.90;;;;;;5028355;28;20064;-46
2022/05/03 09:05:23;;;;;;;26.52;8.07;;;10.30;99.90;;;;;;5023029;28;20084;-48
2022/05/03 09:07:54;;;;;;;27.45;7.70;;;10.30;99.90;;;;;;5022607;28;20650;-46
2022/05/03 09:10:28;;;;;;;22.77;7.85;;;10.40;99.90;;;;;;5023279;28;20571;-46
2022/05/03 09:12:55;;;;;;;22.00;6.97;;;10.40;99.90;;;;;;5021891;28;20049;-48
2022/05/03 09:15:32;;;;;;;23.08;7.68;;;10.50;99.90;;;;;;5024104;28;20057;-46
2022/05/03 09:17:58;;;;;;;26.05;9.18;;;10.70;99.90;;;;;;5004560;28;20148;-47
2022/05/03 09:26:31;;;;;;;17.10;7.38;;;11.00;99.90;;;;;;5040033;28;20093;-48
2022/05/03 09:29:02;;;;;;;15.38;5.70;;;11.00;99.90;;;;;;5038936;28;20092;-51
2022/05/03 09:31:48;;;;;;;21.00;6.32;;;11.10;99.90;;;;;;5038968;28;20052;-51
2022/05/03 09:34:22;;;;;;;21.27;7.63;;;11.20;99.90;;;;;;5042680;28;20102;-49
2022/05/03 09:37:02;;;;;;;15.48;6.15;;;11.30;99.90;;;;;;5041221;28;20049;-52
2022/05/03 09:39:37;;;;;;;27.38;6.05;;;11.50;99.90;;;;;;5041042;28;20045;-49
2022/05/03 09:42:06;;;;;;;16.40;5.38;;;11.60;99.90;;;;;;5040775;28;20049;-53
2022/05/03 09:44:36;;;;;;;18.85;5.40;;;11.60;99.90;;;;;;5040672;28;20052;-48
2022/05/03 09:47:09;;;;;;;18.95;5.60;;;11.60;99.90;;;;;;5022953;28;20523;-50
2022/05/03 09:49:40;;;;;;;18.17;5.32;;;11.70;99.90;;;;;;5041473;28;20517;-48
2022/05/03 09:52:12;;;;;;;13.20;5.40;;;11.90;99.90;;;;;;5039604;28;20049;-50
2022/05/03 09:54:48;;;;;;;16.48;5.43;;;12.00;99.90;;;;;;5028921;28;20558;-50
2022/05/03 09:57:25;;;;;;;16.92;5.57;;;12.10;99.90;;;;;;5040250;28;20065;-52
2022/05/03 09:59:53;;;;;;;15.32;5.28;;;12.30;99.90;;;;;;5040431;28;20103;-51
2022/05/03 10:02:21;;;;;;;7.68;3.60;;;12.30;99.90;;;;;;5043198;28;20133;-50
2022/05/03 10:04:49;;;;;;;17.05;4.78;;;12.50;99.90;;;;;;5043780;28;20786;-48
2022/05/03 10:07:15;;;;;;;12.65;4.25;;;12.60;99.90;;;;;;5042520;28;20053;-51
2022/05/03 10:09:44;;;;;;;11.75;3.72;;;12.70;99.90;;;;;;5040159;28;20049;-51
2022/05/03 10:12:11;;;;;;;13.55;4.32;;;12.70;99.90;;;;;;5038820;28;20049;-50
2022/05/03 10:14:38;;;;;;;12.82;4.40;;;12.90;99.90;;;;;;5040913;28;20455;-52
2022/05/03 10:22:39;;;;;;;12.05;4.43;;;12.80;99.90;;;;;;5038558;28;20064;-47
2022/05/03 10:25:06;;;;;;;12.45;3.63;;;13.00;99.90;;;;;;5046307;28;20052;-50
2022/05/03 10:27:54;;;;;;;20.73;5.13;;;13.00;99.90;;;;;;5059799;28;20061;-50
2022/05/03 10:30:23;;;;;;;14.48;4.90;;;13.00;99.90;;;;;;5058290;28;20499;-48
2022/05/03 10:33:19;;;;;;;12.60;4.35;;;13.10;99.90;;;;;;5054458;28;20049;-53
2022/05/03 10:35:49;;;;;;;9.90;4.30;;;13.00;99.90;;;;;;5060659;28;20053;-48
2022/05/03 10:38:15;;;;;;;15.10;3.63;;;13.20;99.90;;;;;;5041975;28;20409;-48
2022/05/03 10:40:48;;;;;;;10.38;4.15;;;13.20;99.90;;;;;;5060028;28;20173;-50
2022/05/03 10:43:27;;;;;;;11.40;3.22;;;12.80;99.90;;;;;;5058601;28;20056;-51
2022/05/03 10:46:08;;;;;;;11.48;5.10;;;12.70;99.90;;;;;;5060461;28;20052;-51
2022/05/03 10:48:35;;;;;;;10.38;4.18;;;12.90;99.90;;;;;;5050269;28;20168;-48
2022/05/03 10:51:03;;;;;;;14.32;4.50;;;12.80;99.90;;;;;;5034986;28;20040;-48
2022/05/03 10:53:32;;;;;;;10.70;4.15;;;13.00;99.90;;;;;;5060417;28;20102;-50
2022/05/03 10:56:16;;;;;;;7.18;4.10;;;13.20;99.90;;;;;;5042892;28;20049;-51
2022/05/03 10:58:44;;;;;;;13.07;4.25;;;13.30;99.90;;;;;;5042581;28;20611;-49
2022/05/03 11:01:20;;;;;;;10.07;3.72;;;13.50;99.90;;;;;;5041045;28;20063;-50
2022/05/03 11:03:48;;;;;;;9.48;3.72;;;13.50;99.90;;;;;;5052240;28;20048;-48
2022/05/03 11:06:21;;;;;;;12.98;5.03;;;13.80;99.90;;;;;;5057131;28;20117;-50
2022/05/03 11:14:11;;;;;;;10.57;4.10;;;13.80;99.90;;;;;;5050654;28;20071;-49
2022/05/03 11:16:38;;;;;;;11.35;4.30;;;13.90;99.90;;;;;;5061691;28;20259;-51
2022/05/03 11:19:24;;;;;;;10.82;4.55;;;14.10;99.90;;;;;;5045364;28;20056;-50
2022/05/03 11:21:51;;;;;;;10.52;3.88;;;14.00;99.90;;;;;;5060740;28;20053;-50
2022/05/03 11:24:22;;;;;;;10.45;3.97;;;13.90;99.90;;;;;;5039953;28;20123;-50
2022/05/03 11:26:50;;;;;;;9.18;3.45;;;14.00;99.90;;;;;;5040714;28;20056;-50
2022/05/03 11:29:17;;;;;;;11.40;3.50;;;13.90;99.90;;;;;;5040443;28;20525;-49
2022/05/03 11:31:50;;;;;;;10.32;3.42;;;14.00;99.90;;;;;;5038405;28;20491;-49
2022/05/03 11:34:20;;;;;;;11.32;3.53;;;13.90;99.90;;;;;;5039739;28;20056;-51
2022/05/03 11:36:47;;;;;;;12.27;3.45;;;14.10;99.90;;;;;;5039194;28;20049;-51
2022/05/03 11:39:14;;;;;;;12.95;4.35;;;14.20;99.90;;;;;;5039955;28;20419;-53
2022/05/03 11:41:42;;;;;;;8.82;3.55;;;14.30;99.90;;;;;;5039783;28;20056;-50
2022/05/03 11:44:08;;;;;;;10.60;3.75;;;14.20;99.90;;;;;;5039764;28;20107;-52
2022/05/03 11:46:34;;;;;;;7.30;3.13;;;14.30;99.90;;;;;;5039564;28;20041;-49
2022/05/03 11:49:03;;;;;;;12.90;3.63;;;14.10;99.90;;;;;;5022218;28;20064;-52
2022/05/03 11:57:33;;;;;;;7.43;3.55;;;13.90;99.90;;;;;;5039331;28;20049;-48
2022/05/03 12:00:00;;;;;;;7.20;3.50;;;13.90;99.90;;;;;;5039624;28;20084;-49
2022/05/03 12:02:27;;;;;;;10.70;3.78;;;14.10;99.90;;;;;;5039287;28;20080;-48
2022/05/03 12:05:05;;;;;;;10.13;3.38;;;14.10;99.90;;;;;;5038868;28;20072;-50
2022/05/03 12:07:36;;;;;;;7.53;3.47;;;14.10;99.90;;;;;;5036267;28;20459;-47
2022/05/03 12:10:28;;;;;;;10.52;3.53;;;13.80;99.90;;;;;;5033190;28;20194;-49
2022/05/03 12:13:09;;;;;;;12.68;3.25;;;14.10;99.90;;;;;;5042061;28;20583;-52
2022/05/03 12:15:39;;;;;;;6.65;3.45;;;14.10;99.90;;;;;;5041060;28;20045;-50
2022/05/03 12:18:11;;;;;;;8.80;3.38;;;14.00;99.90;;;;;;5039718;28;20045;-50
2022/05/03 12:20:48;;;;;;;8.23;3.58;;;14.10;99.90;;;;;;5041868;28;20075;-51
2022/05/03 12:23:22;;;;;;;10.02;3.47;;;14.30;99.90;;;;;;5042174;28;20480;-45
2022/05/03 12:25:52;;;;;;;9.25;3.00;;;14.20;99.90;;;;;;5040581;28;20094;-52
2022/05/03 12:28:18;;;;;;;9.73;3.58;;;14.10;99.90;;;;;;5041365;28;20064;-53
2022/05/03 12:30:45;;;;;;;12.95;3.97;;;14.40;99.90;;;;;;5044260;28;20381;-49
2022/05/03 12:33:15;;;;;;;10.70;3.55;;;14.50;99.90;;;;;;5047925;28;20523;-49
2022/05/03 12:35:43;;;;;;;9.60;3.60;;;14.20;99.90;;;;;;5040407;28;20125;-51
2022/05/03 12:38:17;;;;;;;16.65;6.10;;;14.20;99.90;;;;;;5035511;28;20093;-51
2022/05/03 12:40:51;;;;;;;12.32;3.45;;;14.00;99.90;;;;;;5038311;28;20058;-52
2022/05/03 12:43:23;;;;;;;9.98;3.58;;;14.00;99.90;;;;;;5041083;28;20055;-49
2022/05/03 12:46:00;;;;;;;7.45;2.80;;;14.10;99.90;;;;;;5043087;28;20052;-53
2022/05/03 12:48:27;;;;;;;9.57;2.55;;;14.10;99.90;;;;;;5042475;28;20396;-47
2022/05/03 12:50:56;;;;;;;8.88;2.80;;;14.30;99.90;;;;;;5037610;28;20048;-52
2022/05/03 12:53:26;;;;;;;8.27;3.15;;;14.50;99.90;;;;;;5035669;28;20134;-52
2022/05/03 12:55:54;;;;;;;9.45;2.78;;;14.50;99.90;;;;;;5042720;28;20493;-49
2022/05/03 12:58:22;;;;;;;12.88;3.42;;;14.60;99.90;;;;;;5040205;28;20126;-49
2022/05/03 13:00:50;;;;;;;8.20;3.17;;;14.30;99.90;;;;;;5032622;28;20690;-50
2022/05/03 13:03:21;;;;;;;10.80;2.67;;;14.30;99.90;;;;;;5041440;28;20059;-49
2022/05/03 13:05:49;;;;;;;9.82;2.63;;;14.30;99.90;;;;;;5042768;28;20044;-50
2022/05/03 13:08:16;;;;;;;9.40;3.15;;;14.30;99.90;;;;;;5041987;28;20051;-52
2022/05/03 13:10:41;;;;;;;10.25;2.78;;;14.40;99.90;;;;;;5041531;28;20094;-51
2022/05/03 13:13:07;;;;;;;12.07;3.03;;;14.50;99.90;;;;;;5038141;28;20052;-50
2022/05/03 13:15:34;;;;;;;9.50;2.97;;;14.70;99.90;;;;;;5041214;28;20045;-49
2022/05/03 13:18:00;;;;;;;8.30;2.90;;;14.90;99.90;;;;;;5041156;28;20053;-51
2022/05/03 13:20:29;;;;;;;6.63;2.60;;;14.90;99.90;;;;;;5042213;28;20041;-46
2022/05/03 13:22:55;;;;;;;9.13;2.80;;;14.50;99.90;;;;;;5037879;28;20049;-49
2022/05/03 13:25:22;;;;;;;9.05;2.88;;;14.50;99.90;;;;;;5057042;28;20566;-50
2022/05/03 13:27:48;;;;;;;7.90;2.85;;;14.40;99.90;;;;;;5062436;28;20091;-49
2022/05/03 13:30:15;;;;;;;11.15;3.00;;;14.20;99.90;;;;;;5061221;28;20048;-49
2022/05/03 13:32:41;;;;;;;5.88;2.42;;;13.90;99.90;;;;;;5060486;28;20052;-48
2022/05/03 13:35:08;;;;;;;5.63;2.70;;;14.00;99.90;;;;;;5062660;28;20087;-48
2022/05/03 13:40:31;;;;;;;10.10;3.22;;;14.10;99.90;;;;;;5043219;28;20107;-49
2022/05/03 13:42:58;;;;;;;6.63;2.70;;;13.90;99.90;;;;;;5058913;28;20037;-49